Time;durP1;ratioP1;P1;durP2;ratioP2;P2;SDS_P1;SDS_P2;PMS_P1;PMS_P2;Temp;Humidity;BMP_temperature;BMP_pressure;BME280_temperature;BME280_humidity;BME280_pressure;Samples;Min_cycle;Max_cycle;Signal;HPM_P1;HPM_P2
2023/05/16 00:00:25;;;;;;;9.50;6.97;;;18.90;54.80;;;;;;4993132;28;20293;-48
2023/05/16 00:02:51;;;;;;;7.03;6.33;;;18.80;54.90;;;;;;4984003;28;20234;-49
2023/05/16 00:05:17;;;;;;;7.63;6.87;;;18.80;55.00;;;;;;4982546;28;20195;-49
2023/05/16 00:07:44;;;;;;;8.00;7.07;;;18.70;55.10;;;;;;4989374;28;20216;-50
2023/05/16 00:10:11;;;;;;;8.30;7.60;;;18.70;55.20;;;;;;4990026;28;20209;-51
2023/05/16 00:12:38;;;;;;;8.07;7.27;;;18.80;55.40;;;;;;4990890;28;20477;-52
2023/05/16 00:15:09;;;;;;;7.63;6.93;;;18.70;55.30;;;;;;5002195;28;20513;-49
2023/05/16 00:17:35;;;;;;;7.53;6.90;;;18.70;55.40;;;;;;4990592;28;20461;-51
2023/05/16 00:20:09;;;;;;;7.57;6.97;;;18.70;55.50;;;;;;4990397;28;20450;-50
2023/05/16 00:22:36;;;;;;;7.77;7.07;;;18.60;55.50;;;;;;4983820;28;21161;-49
2023/05/16 00:25:02;;;;;;;7.00;6.40;;;18.60;55.40;;;;;;4990024;28;20541;-53
2023/05/16 00:27:28;;;;;;;7.00;6.40;;;18.60;55.40;;;;;;4990371;28;20437;-49
2023/05/16 00:29:54;;;;;;;10.47;5.93;;;18.60;55.40;;;;;;4989503;28;20456;-50
2023/05/16 00:32:19;;;;;;;6.77;6.17;;;18.50;56.10;;;;;;4989695;28;20224;-53
2023/05/16 00:34:45;;;;;;;7.30;6.60;;;18.50;55.40;;;;;;4991489;28;20442;-53
2023/05/16 00:37:11;;;;;;;7.30;6.47;;;18.50;55.50;;;;;;4991572;28;20217;-49
2023/05/16 00:39:37;;;;;;;6.80;6.20;;;18.50;55.60;;;;;;4980920;28;20201;-50
2023/05/16 00:42:05;;;;;;;8.63;6.10;;;18.60;55.90;;;;;;4989108;28;20446;-52
2023/05/16 00:44:31;;;;;;;6.10;5.60;;;18.60;55.60;;;;;;4991945;28;20202;-49
2023/05/16 00:46:57;;;;;;;6.33;5.73;;;18.60;55.60;;;;;;4990989;28;20441;-52
2023/05/16 00:49:23;;;;;;;6.80;6.30;;;18.60;55.30;;;;;;4987950;28;20210;-51
2023/05/16 00:51:49;;;;;;;7.40;6.70;;;18.60;55.10;;;;;;4991223;28;20237;-52
2023/05/16 00:54:14;;;;;;;7.87;6.37;;;18.50;54.90;;;;;;4988782;28;20941;-52
2023/05/16 00:56:40;;;;;;;6.50;5.90;;;18.50;54.90;;;;;;4985109;28;20229;-51
2023/05/16 00:59:06;;;;;;;7.03;6.47;;;18.50;55.10;;;;;;4982225;28;20566;-53
2023/05/16 01:01:32;;;;;;;7.10;6.40;;;18.50;54.90;;;;;;4988065;28;20199;-52
2023/05/16 01:03:59;;;;;;;7.50;6.90;;;18.50;54.80;;;;;;4988135;28;20234;-52
2023/05/16 01:06:25;;;;;;;7.23;6.50;;;18.50;54.90;;;;;;4986444;28;21078;-50
2023/05/16 01:08:50;;;;;;;7.70;6.23;;;18.40;55.00;;;;;;4982935;28;20441;-51
2023/05/16 01:11:30;;;;;;;7.33;6.63;;;18.30;55.10;;;;;;4982371;28;20190;-49
2023/05/16 01:13:58;;;;;;;7.63;6.93;;;18.30;55.20;;;;;;4985625;28;20601;-51
2023/05/16 01:16:38;;;;;;;8.90;7.70;;;18.20;55.50;;;;;;4991305;28;20449;-53
2023/05/16 01:19:44;;;;;;;7.47;6.87;;;18.20;55.90;;;;;;4998135;28;20481;-51
2023/05/16 01:22:15;;;;;;;7.23;6.50;;;18.20;56.00;;;;;;4991965;28;20495;-51
2023/05/16 01:24:43;;;;;;;6.87;6.37;;;18.20;56.00;;;;;;4989230;28;20441;-49
2023/05/16 01:27:10;;;;;;;6.83;6.20;;;18.20;56.00;;;;;;4988019;28;20485;-49
2023/05/16 01:29:36;;;;;;;7.47;6.60;;;18.20;55.70;;;;;;5000449;28;20445;-50
2023/05/16 01:32:01;;;;;;;7.33;6.70;;;18.20;55.70;;;;;;4983434;28;20489;-48
2023/05/16 01:34:27;;;;;;;7.40;6.70;;;18.20;55.70;;;;;;4981980;28;20282;-49
2023/05/16 01:36:58;;;;;;;7.63;6.90;;;18.20;55.50;;;;;;4982279;28;20194;-49
2023/05/16 01:39:44;;;;;;;7.73;7.03;;;18.20;55.40;;;;;;4982715;28;20325;-49
2023/05/16 01:42:13;;;;;;;7.67;6.87;;;18.20;55.20;;;;;;4984601;28;20477;-51
2023/05/16 01:45:11;;;;;;;8.17;7.40;;;18.10;55.00;;;;;;4986308;28;20450;-52
2023/05/16 01:47:43;;;;;;;7.20;6.60;;;18.10;55.10;;;;;;4990812;28;20438;-49
2023/05/16 01:50:14;;;;;;;7.40;6.77;;;18.10;55.30;;;;;;4991171;28;20465;-49
2023/05/16 01:52:54;;;;;;;7.60;6.90;;;18.10;55.50;;;;;;4984945;28;20995;-49
2023/05/16 01:55:28;;;;;;;6.67;6.17;;;18.20;55.40;;;;;;4989347;28;20449;-50
2023/05/16 01:57:55;;;;;;;7.20;6.50;;;18.20;55.30;;;;;;4987000;28;20525;-49
2023/05/16 02:00:22;;;;;;;7.50;6.90;;;18.20;55.00;;;;;;4990788;28;20499;-48
2023/05/16 02:02:47;;;;;;;7.93;7.13;;;18.20;54.90;;;;;;4987832;28;21000;-48
2023/05/16 02:05:13;;;;;;;8.27;7.40;;;18.30;54.90;;;;;;4985619;28;20442;-49
2023/05/16 02:07:38;;;;;;;8.33;7.50;;;18.20;54.80;;;;;;4982592;28;20213;-49
2023/05/16 02:10:05;;;;;;;7.40;6.70;;;18.20;54.50;;;;;;4985191;28;20194;-48
2023/05/16 02:12:30;;;;;;;8.77;8.03;;;18.10;54.40;;;;;;4991781;28;20683;-49
2023/05/16 02:14:56;;;;;;;8.80;6.80;;;18.10;54.60;;;;;;4983261;28;20460;-49
2023/05/16 02:17:21;;;;;;;7.13;6.53;;;18.10;54.60;;;;;;4984735;28;20241;-48
2023/05/16 02:19:47;;;;;;;7.33;6.73;;;18.00;54.40;;;;;;4979938;28;20195;-48
2023/05/16 02:22:12;;;;;;;7.30;6.70;;;17.90;54.30;;;;;;4984770;28;20202;-49
2023/05/16 02:24:38;;;;;;;7.87;7.17;;;17.80;54.60;;;;;;4985460;28;20665;-48
2023/05/16 02:27:04;;;;;;;7.90;7.20;;;17.70;55.30;;;;;;4984285;28;20203;-49
2023/05/16 02:29:29;;;;;;;8.37;7.40;;;17.70;55.40;;;;;;4984478;28;20329;-48
2023/05/16 02:31:55;;;;;;;8.10;7.40;;;17.60;55.60;;;;;;4987159;28;20222;-48
2023/05/16 02:34:20;;;;;;;8.23;7.53;;;17.60;55.70;;;;;;4990094;28;20278;-50
2023/05/16 02:36:46;;;;;;;8.90;8.10;;;17.60;56.00;;;;;;4989475;28;20662;-49
2023/05/16 02:39:11;;;;;;;9.20;7.97;;;17.60;56.00;;;;;;4989013;28;20266;-48
2023/05/16 02:41:37;;;;;;;8.43;7.57;;;17.50;56.00;;;;;;5003711;28;20203;-49
2023/05/16 02:44:03;;;;;;;9.13;7.70;;;17.50;56.50;;;;;;4990474;28;20241;-48
2023/05/16 02:46:32;;;;;;;8.40;7.60;;;17.50;56.80;;;;;;4985901;28;20278;-49
2023/05/16 02:48:58;;;;;;;8.27;7.40;;;17.50;56.70;;;;;;4984219;28;20217;-49
2023/05/16 02:51:25;;;;;;;7.97;7.30;;;17.40;56.50;;;;;;4989929;28;20525;-49
2023/05/16 02:53:52;;;;;;;8.03;7.33;;;17.40;56.80;;;;;;4984124;28;20944;-50
2023/05/16 02:56:18;;;;;;;8.37;7.67;;;17.40;56.70;;;;;;4981955;28;20523;-49
2023/05/16 02:58:47;;;;;;;8.17;7.43;;;17.40;56.80;;;;;;4987085;28;20526;-50
2023/05/16 03:01:13;;;;;;;8.33;7.60;;;17.40;56.90;;;;;;4980005;28;20462;-49
2023/05/16 03:03:38;;;;;;;8.13;7.40;;;17.30;56.90;;;;;;4981400;28;20481;-50
2023/05/16 03:06:04;;;;;;;7.23;6.50;;;17.30;57.10;;;;;;4988388;28;20456;-48
2023/05/16 03:08:31;;;;;;;8.43;7.63;;;17.30;57.10;;;;;;4986354;28;20964;-48
2023/05/16 03:10:56;;;;;;;8.33;7.57;;;17.40;57.00;;;;;;4979383;28;20452;-48
2023/05/16 03:13:22;;;;;;;8.40;7.70;;;17.40;57.00;;;;;;4985128;28;20481;-48
2023/05/16 03:15:47;;;;;;;7.27;6.57;;;17.30;57.10;;;;;;4989701;28;20673;-48
2023/05/16 03:18:13;;;;;;;7.23;6.33;;;17.40;57.40;;;;;;4989238;28;20230;-49
2023/05/16 03:20:39;;;;;;;8.73;7.50;;;17.40;57.40;;;;;;4999271;28;20194;-48
2023/05/16 03:23:07;;;;;;;8.63;7.83;;;17.40;57.30;;;;;;4982959;28;20233;-48
2023/05/16 03:25:36;;;;;;;8.47;7.67;;;17.40;57.20;;;;;;4990646;28;20187;-49
2023/05/16 03:28:02;;;;;;;8.10;7.40;;;17.40;57.50;;;;;;4986581;28;20457;-50
2023/05/16 03:30:28;;;;;;;7.97;6.30;;;17.40;57.60;;;;;;4982386;28;20460;-49
2023/05/16 03:32:54;;;;;;;8.20;7.40;;;17.40;57.50;;;;;;4986285;28;20445;-52
2023/05/16 03:35:20;;;;;;;8.57;7.80;;;17.40;57.20;;;;;;4978448;28;20233;-50
2023/05/16 03:37:45;;;;;;;8.03;7.33;;;17.40;57.20;;;;;;4979099;28;20481;-49
2023/05/16 03:40:11;;;;;;;7.80;7.10;;;17.40;57.20;;;;;;4979422;28;20194;-49
2023/05/16 03:42:37;;;;;;;8.80;8.00;;;17.40;57.20;;;;;;4982076;28;20272;-49
2023/05/16 03:45:05;;;;;;;9.17;8.37;;;17.40;57.20;;;;;;4984968;28;20480;-48
2023/05/16 03:47:31;;;;;;;8.97;8.07;;;17.50;57.30;;;;;;4990345;28;20202;-49
2023/05/16 03:49:56;;;;;;;10.27;9.13;;;17.50;57.30;;;;;;4984426;28;20508;-49
2023/05/16 03:52:22;;;;;;;10.83;9.80;;;17.50;57.40;;;;;;4986529;28;20194;-48
2023/05/16 03:54:48;;;;;;;11.47;10.20;;;17.50;57.50;;;;;;4987553;28;20218;-50
2023/05/16 03:57:13;;;;;;;13.10;11.43;;;17.60;57.60;;;;;;4983501;28;20244;-54
2023/05/16 03:59:39;;;;;;;15.23;13.63;;;17.60;57.70;;;;;;4981103;28;20244;-49
2023/05/16 04:02:05;;;;;;;13.10;11.50;;;17.60;57.80;;;;;;4983428;28;20671;-48
2023/05/16 04:04:31;;;;;;;9.70;8.70;;;17.60;57.90;;;;;;4983281;28;20241;-50
2023/05/16 04:06:56;;;;;;;8.43;7.63;;;17.70;57.90;;;;;;4988923;28;20437;-50
2023/05/16 04:09:22;;;;;;;8.90;8.00;;;17.70;57.40;;;;;;5001311;28;20212;-49
2023/05/16 04:11:48;;;;;;;10.60;9.60;;;17.70;57.40;;;;;;5010583;28;20190;-48
2023/05/16 04:14:14;;;;;;;10.30;9.30;;;17.70;57.80;;;;;;5003838;28;20284;-48
2023/05/16 04:16:40;;;;;;;11.00;10.00;;;17.60;57.30;;;;;;4997870;28;20649;-50
2023/05/16 04:19:06;;;;;;;14.10;11.03;;;17.60;57.60;;;;;;4993505;28;20426;-53
2023/05/16 04:21:32;;;;;;;16.20;12.17;;;17.50;57.70;;;;;;4999633;28;20784;-49
2023/05/16 04:23:58;;;;;;;14.50;13.00;;;17.50;58.00;;;;;;4994445;28;20485;-50
2023/05/16 04:26:24;;;;;;;13.60;12.20;;;17.50;58.60;;;;;;5008892;28;20622;-52
2023/05/16 04:28:50;;;;;;;18.90;14.33;;;17.40;59.00;;;;;;5008161;28;20217;-51
2023/05/16 04:31:15;;;;;;;14.80;11.53;;;17.40;59.20;;;;;;4991482;28;20449;-51
2023/05/16 04:33:41;;;;;;;13.63;10.80;;;17.40;59.30;;;;;;4994377;28;20194;-50
2023/05/16 04:36:07;;;;;;;14.87;10.63;;;17.40;59.40;;;;;;4994916;28;20190;-50
2023/05/16 04:38:33;;;;;;;11.80;10.60;;;17.40;59.50;;;;;;4988120;28;20257;-52
2023/05/16 04:40:58;;;;;;;12.43;11.23;;;17.40;59.40;;;;;;4984455;28;20678;-49
2023/05/16 04:43:25;;;;;;;12.60;11.30;;;17.40;59.40;;;;;;4984432;28;20566;-48
2023/05/16 04:45:52;;;;;;;15.37;13.30;;;17.40;59.70;;;;;;4981359;28;20203;-50
2023/05/16 04:48:18;;;;;;;14.97;13.43;;;17.40;59.80;;;;;;4990894;28;20548;-49
2023/05/16 04:50:44;;;;;;;18.33;13.50;;;17.40;59.90;;;;;;4990153;28;20524;-48
2023/05/16 04:53:09;;;;;;;16.07;14.27;;;17.40;60.10;;;;;;4981934;28;20207;-50
2023/05/16 04:55:35;;;;;;;13.93;12.53;;;17.50;60.40;;;;;;4982293;28;20998;-51
2023/05/16 04:58:01;;;;;;;13.67;12.37;;;17.50;60.60;;;;;;4985915;28;20211;-47
2023/05/16 05:00:27;;;;;;;17.10;12.90;;;17.50;60.50;;;;;;4989896;28;20194;-47
2023/05/16 05:02:53;;;;;;;17.63;15.73;;;17.50;60.90;;;;;;4989525;28;20310;-50
2023/05/16 05:05:19;;;;;;;26.03;22.27;;;17.50;60.30;;;;;;4989414;28;20442;-49
2023/05/16 05:07:44;;;;;;;25.13;22.40;;;17.60;61.00;;;;;;4993903;28;20199;-48
2023/05/16 05:10:10;;;;;;;25.77;22.00;;;17.60;61.30;;;;;;4989713;28;21093;-47
2023/05/16 05:12:36;;;;;;;23.67;21.20;;;17.60;61.40;;;;;;4988270;28;20238;-49
2023/05/16 05:15:02;;;;;;;27.00;21.10;;;17.60;61.40;;;;;;4992395;28;20210;-47
2023/05/16 05:17:28;;;;;;;22.70;19.90;;;17.60;61.40;;;;;;4984800;28;20190;-50
2023/05/16 05:19:54;;;;;;;21.93;18.90;;;17.60;61.40;;;;;;4982331;28;20464;-46
2023/05/16 05:22:19;;;;;;;27.27;21.13;;;17.60;61.90;;;;;;4983041;28;20445;-48
2023/05/16 05:24:45;;;;;;;33.83;23.73;;;17.60;62.20;;;;;;4985482;28;20683;-47
2023/05/16 05:27:10;;;;;;;29.30;23.20;;;17.60;62.80;;;;;;4990182;28;20291;-48
2023/05/16 05:29:36;;;;;;;33.97;26.10;;;17.50;63.30;;;;;;4984525;28;20346;-48
2023/05/16 05:32:02;;;;;;;33.83;25.63;;;17.50;63.70;;;;;;4988108;28;20195;-51
2023/05/16 05:34:27;;;;;;;37.90;26.90;;;17.60;63.80;;;;;;4987086;28;20320;-52
2023/05/16 05:36:53;;;;;;;33.40;26.07;;;17.50;64.20;;;;;;4984547;28;20206;-48
2023/05/16 05:39:18;;;;;;;31.77;26.13;;;17.40;64.40;;;;;;4985009;28;20195;-50
2023/05/16 05:41:44;;;;;;;34.63;27.13;;;17.50;64.60;;;;;;4988249;28;20195;-52
2023/05/16 05:44:10;;;;;;;29.77;24.50;;;17.60;64.30;;;;;;4989197;28;20230;-51
2023/05/16 05:46:36;;;;;;;32.80;25.97;;;17.60;64.30;;;;;;4988517;28;20203;-52
2023/05/16 05:49:01;;;;;;;30.57;25.17;;;17.60;64.10;;;;;;4991296;28;20207;-52
2023/05/16 05:51:27;;;;;;;33.07;26.57;;;17.70;63.80;;;;;;4986709;28;20206;-52
2023/05/16 05:53:53;;;;;;;28.57;24.23;;;17.60;63.90;;;;;;4988478;28;20201;-51
2023/05/16 05:56:20;;;;;;;30.20;26.20;;;17.60;64.20;;;;;;4992801;28;20198;-49
2023/05/16 05:58:45;;;;;;;33.47;26.83;;;17.70;63.90;;;;;;4990824;28;20443;-51
2023/05/16 06:01:11;;;;;;;31.13;23.60;;;17.70;63.70;;;;;;4991284;28;20449;-52
2023/05/16 06:03:36;;;;;;;28.57;23.27;;;17.80;63.30;;;;;;4989725;28;20268;-52
2023/05/16 06:06:03;;;;;;;28.93;23.60;;;17.80;63.20;;;;;;4989178;28;20222;-51
2023/05/16 06:08:28;;;;;;;26.00;22.60;;;17.80;63.40;;;;;;4991632;28;20245;-49
2023/05/16 06:10:54;;;;;;;28.27;23.97;;;17.80;63.60;;;;;;4992323;28;20430;-51
2023/05/16 06:13:20;;;;;;;25.63;21.33;;;17.90;63.40;;;;;;4994191;28;20247;-51
2023/05/16 06:15:53;;;;;;;29.30;21.37;;;17.90;62.90;;;;;;4991682;28;20195;-53
2023/05/16 06:18:19;;;;;;;28.33;23.80;;;17.80;63.10;;;;;;4996617;28;20761;-51
2023/05/16 06:20:45;;;;;;;30.67;23.27;;;17.80;63.60;;;;;;4991558;28;20434;-49
2023/05/16 06:23:11;;;;;;;27.57;22.97;;;17.80;63.60;;;;;;4991906;28;20497;-52
2023/05/16 06:25:37;;;;;;;31.63;23.70;;;17.80;63.50;;;;;;4991025;28;20199;-52
2023/05/16 06:28:03;;;;;;;27.53;22.30;;;17.80;63.50;;;;;;4991162;28;21059;-51
2023/05/16 06:30:28;;;;;;;27.67;23.17;;;17.70;63.90;;;;;;4990187;28;20202;-48
2023/05/16 06:32:54;;;;;;;28.30;22.80;;;17.70;63.80;;;;;;4989662;28;20270;-48
2023/05/16 06:35:19;;;;;;;27.23;22.83;;;17.80;63.80;;;;;;4984749;28;20206;-52
2023/05/16 06:37:45;;;;;;;28.20;24.30;;;17.80;63.90;;;;;;4989995;28;20305;-52
2023/05/16 06:40:11;;;;;;;29.03;23.53;;;17.80;64.30;;;;;;4988936;28;20285;-50
2023/05/16 06:42:37;;;;;;;28.33;21.87;;;17.80;64.00;;;;;;4989008;28;20598;-50
2023/05/16 06:45:03;;;;;;;25.80;21.73;;;18.00;63.80;;;;;;4988228;28;20464;-51
2023/05/16 06:47:28;;;;;;;30.47;22.83;;;18.00;63.80;;;;;;4988357;28;20450;-51
2023/05/16 06:49:54;;;;;;;25.50;22.20;;;18.10;63.30;;;;;;4988837;28;20203;-51
2023/05/16 06:52:20;;;;;;;24.00;20.57;;;18.10;62.80;;;;;;4987548;28;20229;-50
2023/05/16 06:54:46;;;;;;;26.33;22.47;;;18.20;62.40;;;;;;4985349;28;20701;-49
2023/05/16 06:57:12;;;;;;;23.73;20.70;;;18.30;62.30;;;;;;4983822;28;20520;-48
2023/05/16 06:59:38;;;;;;;24.50;20.17;;;18.30;61.80;;;;;;4983791;28;20564;-51
2023/05/16 07:02:04;;;;;;;24.97;20.23;;;18.30;62.00;;;;;;4987352;28;20446;-48
2023/05/16 07:04:30;;;;;;;24.23;19.67;;;18.40;61.80;;;;;;4992588;28;20221;-54
2023/05/16 07:06:56;;;;;;;20.60;18.37;;;18.50;61.70;;;;;;4986205;28;20819;-48
2023/05/16 07:09:22;;;;;;;20.10;17.57;;;18.50;61.40;;;;;;4985393;28;20446;-48
2023/05/16 07:11:47;;;;;;;20.67;18.47;;;18.50;61.50;;;;;;4984059;28;20294;-48
2023/05/16 07:14:13;;;;;;;17.67;15.73;;;18.40;61.20;;;;;;4994953;28;20202;-51
2023/05/16 07:16:38;;;;;;;15.60;14.10;;;18.30;61.00;;;;;;5006937;28;20280;-51
2023/05/16 07:19:04;;;;;;;16.67;14.97;;;18.40;61.60;;;;;;4995624;28;20612;-49
2023/05/16 07:21:30;;;;;;;20.20;15.93;;;18.20;61.20;;;;;;4981723;28;20574;-52
2023/05/16 07:23:56;;;;;;;15.67;14.07;;;18.20;61.60;;;;;;4988019;28;20226;-48
2023/05/16 07:26:22;;;;;;;17.03;13.77;;;18.10;60.80;;;;;;4986392;28;20203;-54
2023/05/16 07:28:51;;;;;;;14.20;12.80;;;18.10;61.30;;;;;;4994244;28;20607;-52
2023/05/16 07:31:17;;;;;;;15.60;14.00;;;18.20;60.60;;;;;;4989119;28;20442;-53
2023/05/16 07:33:44;;;;;;;16.17;13.83;;;18.40;60.30;;;;;;4993305;28;20803;-48
2023/05/16 07:36:10;;;;;;;15.60;14.00;;;18.60;60.10;;;;;;4989932;28;20305;-50
2023/05/16 07:38:35;;;;;;;15.77;14.20;;;18.40;60.60;;;;;;4988020;28;20521;-51
2023/05/16 07:41:01;;;;;;;16.03;14.00;;;18.60;60.30;;;;;;4984576;28;20464;-50
2023/05/16 07:43:27;;;;;;;16.93;15.13;;;18.70;59.20;;;;;;4988310;28;20226;-49
2023/05/16 07:45:53;;;;;;;13.80;12.50;;;18.80;59.00;;;;;;4987080;28;20195;-49
2023/05/16 07:48:18;;;;;;;15.90;14.20;;;18.80;58.20;;;;;;4987019;28;20190;-52
2023/05/16 07:50:44;;;;;;;14.50;13.10;;;18.70;58.10;;;;;;4993326;28;20536;-51
2023/05/16 07:53:09;;;;;;;18.00;13.60;;;18.80;57.70;;;;;;4990094;28;20227;-49
2023/05/16 07:55:35;;;;;;;18.07;12.33;;;18.80;57.60;;;;;;4991734;28;20201;-48
2023/05/16 07:58:02;;;;;;;13.70;12.30;;;18.80;57.30;;;;;;4992767;28;20277;-53
2023/05/16 08:00:27;;;;;;;15.20;13.07;;;18.90;57.20;;;;;;4991209;28;20201;-51
2023/05/16 08:02:53;;;;;;;15.30;13.70;;;18.90;58.80;;;;;;4989536;28;20904;-52
2023/05/16 08:05:18;;;;;;;15.87;14.27;;;19.00;58.70;;;;;;4988230;28;20221;-48
2023/05/16 08:07:44;;;;;;;17.40;13.90;;;19.10;59.00;;;;;;4985217;28;20741;-53
2023/05/16 08:10:10;;;;;;;10.20;9.30;;;19.20;58.60;;;;;;4983536;28;20195;-50
2023/05/16 08:12:35;;;;;;;13.60;11.97;;;19.10;58.90;;;;;;4995100;28;20265;-51
2023/05/16 08:15:02;;;;;;;12.43;11.30;;;19.30;58.40;;;;;;4987906;28;20273;-51
2023/05/16 08:17:28;;;;;;;14.10;8.97;;;19.40;57.90;;;;;;4984554;28;20209;-48
2023/05/16 08:19:53;;;;;;;13.50;11.50;;;19.60;57.90;;;;;;4984496;28;20442;-53
2023/05/16 08:22:19;;;;;;;13.07;11.57;;;19.90;57.30;;;;;;4988568;28;20195;-50
2023/05/16 08:24:45;;;;;;;12.90;11.60;;;20.10;56.30;;;;;;4988181;28;20678;-48
2023/05/16 08:27:11;;;;;;;13.70;12.40;;;20.10;55.50;;;;;;5002302;28;20198;-49
2023/05/16 08:29:36;;;;;;;13.80;12.40;;;20.10;55.70;;;;;;4984821;28;20195;-52
2023/05/16 08:32:02;;;;;;;13.77;12.37;;;20.00;54.50;;;;;;4992375;28;20469;-49
2023/05/16 08:34:30;;;;;;;13.77;12.47;;;19.90;54.50;;;;;;4991039;28;20230;-49
2023/05/16 08:36:56;;;;;;;14.90;13.37;;;19.50;55.40;;;;;;4991209;28;20260;-53
2023/05/16 08:39:25;;;;;;;13.40;12.10;;;19.40;55.60;;;;;;4988897;28;20445;-52
2023/05/16 08:41:51;;;;;;;12.17;10.87;;;19.20;55.90;;;;;;4982482;28;20194;-52
2023/05/16 08:44:20;;;;;;;12.83;11.70;;;19.00;56.40;;;;;;4992296;28;20500;-49
2023/05/16 08:46:52;;;;;;;13.40;12.00;;;19.00;56.60;;;;;;4993688;28;20670;-49
2023/05/16 08:49:19;;;;;;;11.60;10.50;;;19.00;56.40;;;;;;4989258;28;20530;-51
2023/05/16 08:51:46;;;;;;;14.03;12.57;;;19.10;56.20;;;;;;4985377;28;20513;-50
2023/05/16 08:54:13;;;;;;;12.27;11.07;;;18.90;56.00;;;;;;4991720;28;20445;-49
2023/05/16 08:56:41;;;;;;;13.50;12.20;;;18.70;56.50;;;;;;4983618;28;20442;-49
2023/05/16 08:59:07;;;;;;;13.63;12.33;;;18.50;56.70;;;;;;4990752;28;20529;-49
2023/05/16 09:01:33;;;;;;;13.50;12.20;;;18.40;56.60;;;;;;4992601;28;21007;-50
2023/05/16 09:03:59;;;;;;;13.27;12.13;;;18.30;57.00;;;;;;4991667;28;20632;-49
2023/05/16 09:06:26;;;;;;;13.87;12.47;;;18.20;57.20;;;;;;4993630;28;20561;-49
2023/05/16 09:08:55;;;;;;;12.27;11.17;;;18.30;57.30;;;;;;4992910;28;20434;-49
2023/05/16 09:11:21;;;;;;;13.43;12.13;;;18.40;57.40;;;;;;4992991;28;20453;-53
2023/05/16 09:13:47;;;;;;;13.67;12.30;;;18.30;57.50;;;;;;4990458;28;20501;-49
2023/05/16 09:16:17;;;;;;;14.77;13.20;;;18.40;57.50;;;;;;4983519;28;20206;-48
2023/05/16 09:18:45;;;;;;;13.77;12.47;;;18.60;57.40;;;;;;4990086;28;20464;-51
2023/05/16 09:21:12;;;;;;;17.70;13.17;;;18.70;57.40;;;;;;4987031;28;20541;-50
2023/05/16 09:23:38;;;;;;;15.80;14.13;;;18.70;57.20;;;;;;4988405;28;20485;-49
2023/05/16 09:26:06;;;;;;;15.63;14.03;;;18.70;57.70;;;;;;4988943;28;20442;-49
2023/05/16 09:28:33;;;;;;;14.13;12.73;;;18.70;57.90;;;;;;4992289;28;20195;-50
2023/05/16 09:30:58;;;;;;;16.80;14.00;;;18.70;58.10;;;;;;4993100;28;20749;-52
2023/05/16 09:33:28;;;;;;;15.70;14.10;;;18.80;58.20;;;;;;4990448;28;20445;-51
2023/05/16 09:36:03;;;;;;;16.97;14.27;;;18.80;58.60;;;;;;4990714;28;20724;-49
2023/05/16 09:38:29;;;;;;;18.93;14.70;;;18.90;58.20;;;;;;4991172;28;20496;-50
2023/05/16 09:40:54;;;;;;;16.90;15.10;;;18.80;57.70;;;;;;4989307;28;20446;-50
2023/05/16 09:43:25;;;;;;;16.60;14.70;;;18.90;57.90;;;;;;4992673;28;20233;-50
2023/05/16 09:45:52;;;;;;;15.87;14.17;;;19.00;58.10;;;;;;4992021;28;20199;-51
2023/05/16 09:48:17;;;;;;;16.43;14.73;;;19.00;58.10;;;;;;5001102;28;20536;-50
2023/05/16 09:50:51;;;;;;;14.70;13.20;;;19.00;57.90;;;;;;5011858;28;20536;-52
2023/05/16 09:53:17;;;;;;;16.73;14.20;;;19.20;57.50;;;;;;4994335;28;20233;-52
2023/05/16 09:55:42;;;;;;;18.90;17.00;;;19.30;57.30;;;;;;4990114;28;20478;-52
2023/05/16 09:58:08;;;;;;;18.83;16.83;;;19.20;56.90;;;;;;4987112;28;20469;-50
2023/05/16 10:00:34;;;;;;;17.83;15.90;;;19.10;56.70;;;;;;4986174;28;20194;-53
2023/05/16 10:03:02;;;;;;;17.70;15.80;;;19.10;57.00;;;;;;4990009;28;20225;-52
2023/05/16 10:05:28;;;;;;;18.47;16.67;;;19.10;56.90;;;;;;4994603;28;20191;-51
2023/05/16 10:07:55;;;;;;;20.67;15.47;;;19.10;57.30;;;;;;4990510;28;20866;-51
2023/05/16 10:10:21;;;;;;;18.63;16.63;;;19.10;57.10;;;;;;4990340;28;20449;-51
2023/05/16 10:12:48;;;;;;;19.47;16.90;;;19.10;57.30;;;;;;4991905;28;20949;-50
2023/05/16 10:15:14;;;;;;;19.07;16.97;;;19.00;57.30;;;;;;4992580;28;20541;-50
2023/05/16 10:17:44;;;;;;;19.77;16.60;;;19.10;57.30;;;;;;4986974;28;20556;-53
2023/05/16 10:20:11;;;;;;;19.27;16.33;;;19.10;57.00;;;;;;4987260;28;20469;-51
2023/05/16 10:22:42;;;;;;;17.60;15.80;;;19.00;57.20;;;;;;4991279;28;20438;-51
2023/05/16 10:25:11;;;;;;;22.50;15.80;;;19.10;57.10;;;;;;4995068;28;20452;-50
2023/05/16 10:27:38;;;;;;;19.40;15.97;;;18.90;58.00;;;;;;4987972;28;20520;-52
2023/05/16 10:30:05;;;;;;;21.23;16.20;;;18.90;57.80;;;;;;4988970;28;20454;-50
2023/05/16 10:32:33;;;;;;;19.07;16.13;;;19.00;58.00;;;;;;4985424;28;20523;-50
2023/05/16 10:35:02;;;;;;;19.50;16.47;;;19.00;57.80;;;;;;4992806;28;20460;-51
2023/05/16 10:37:30;;;;;;;18.53;15.63;;;18.80;58.20;;;;;;4990505;28;20996;-51
2023/05/16 10:39:56;;;;;;;18.63;16.00;;;18.80;57.90;;;;;;4989787;28;20469;-50
2023/05/16 10:42:22;;;;;;;18.27;14.87;;;19.00;58.70;;;;;;4999241;28;20794;-54
2023/05/16 10:44:48;;;;;;;16.27;14.53;;;19.20;58.30;;;;;;4988101;28;20453;-50
2023/05/16 10:47:18;;;;;;;13.87;12.47;;;19.40;57.80;;;;;;5001549;28;20258;-49
2023/05/16 10:49:44;;;;;;;20.10;15.20;;;19.60;57.40;;;;;;4987711;28;20265;-50
2023/05/16 10:52:12;;;;;;;13.10;11.70;;;19.70;56.70;;;;;;4991127;28;20437;-49
2023/05/16 10:54:39;;;;;;;14.83;11.43;;;19.80;56.70;;;;;;4988946;28;20537;-51
2023/05/16 10:57:15;;;;;;;13.97;12.57;;;19.90;57.70;;;;;;4988395;28;20560;-50
2023/05/16 10:59:43;;;;;;;18.03;13.93;;;20.00;56.80;;;;;;4989234;28;20528;-51
2023/05/16 11:02:33;;;;;;;16.97;13.23;;;20.10;56.00;;;;;;4988736;28;20450;-51
2023/05/16 11:05:00;;;;;;;13.43;12.00;;;20.20;55.90;;;;;;4979413;28;20561;-54
2023/05/16 11:07:32;;;;;;;17.67;14.60;;;20.30;55.80;;;;;;4986287;28;20457;-51
2023/05/16 11:10:16;;;;;;;14.50;12.00;;;20.20;55.30;;;;;;4990353;28;20453;-50
2023/05/16 11:12:49;;;;;;;13.57;12.17;;;20.30;55.70;;;;;;4988849;28;20477;-51
2023/05/16 11:15:26;;;;;;;12.67;10.83;;;20.30;55.20;;;;;;4999497;28;20446;-49
2023/05/16 11:18:15;;;;;;;16.43;14.17;;;20.40;54.80;;;;;;4988082;28;20453;-51
2023/05/16 11:20:41;;;;;;;17.47;13.50;;;20.30;54.60;;;;;;4980828;28;20462;-53
2023/05/16 11:23:17;;;;;;;15.70;12.10;;;20.20;54.50;;;;;;4988758;28;20525;-54
2023/05/16 11:25:45;;;;;;;12.53;11.23;;;20.30;54.90;;;;;;4989426;28;20453;-49
2023/05/16 11:28:14;;;;;;;15.50;13.90;;;20.30;55.40;;;;;;4990807;28;20448;-51
2023/05/16 11:31:04;;;;;;;16.20;14.23;;;20.40;54.50;;;;;;4980860;28;20496;-50
2023/05/16 11:33:34;;;;;;;16.33;13.00;;;20.40;54.50;;;;;;4984607;28;20452;-50
2023/05/16 11:36:07;;;;;;;11.10;9.90;;;20.30;54.70;;;;;;4988145;28;20949;-51
2023/05/16 11:38:34;;;;;;;11.40;10.23;;;20.10;56.10;;;;;;4985268;28;20496;-50
2023/05/16 11:41:07;;;;;;;12.27;10.97;;;20.00;56.00;;;;;;4988908;28;20939;-51
2023/05/16 11:43:41;;;;;;;12.53;11.20;;;20.00;56.00;;;;;;4988991;28;20864;-50
2023/05/16 11:46:10;;;;;;;11.10;9.93;;;19.90;56.30;;;;;;4993513;28;20517;-50
2023/05/16 11:48:35;;;;;;;11.30;10.20;;;19.90;56.50;;;;;;4991685;28;20432;-51
2023/05/16 11:51:02;;;;;;;11.73;10.40;;;19.90;56.50;;;;;;4992274;28;20449;-50
2023/05/16 11:53:27;;;;;;;11.07;9.87;;;19.80;56.60;;;;;;4989615;28;20554;-50
2023/05/16 11:55:53;;;;;;;11.17;9.90;;;19.90;56.20;;;;;;4985011;28;20456;-50
2023/05/16 11:58:19;;;;;;;10.80;9.70;;;19.80;56.30;;;;;;4989733;28;20190;-51
2023/05/16 12:00:48;;;;;;;9.67;8.73;;;19.60;56.70;;;;;;4986947;28;20217;-53
2023/05/16 12:03:14;;;;;;;10.37;9.27;;;19.30;56.20;;;;;;4987224;28;20242;-49
2023/05/16 12:05:52;;;;;;;9.53;8.53;;;19.30;56.40;;;;;;4997476;28;20563;-49
2023/05/16 12:08:20;;;;;;;12.73;9.53;;;19.20;56.40;;;;;;5004768;28;20202;-49
2023/05/16 12:10:48;;;;;;;9.83;8.60;;;19.00;57.10;;;;;;4990369;28;20446;-51
2023/05/16 12:13:14;;;;;;;9.63;7.87;;;19.00;57.30;;;;;;4997429;28;20462;-50
2023/05/16 12:15:40;;;;;;;8.40;7.50;;;18.90;57.10;;;;;;5000927;28;20456;-51
2023/05/16 12:18:06;;;;;;;8.80;7.90;;;18.90;57.20;;;;;;5001609;28;20480;-50
2023/05/16 12:20:32;;;;;;;8.73;7.80;;;19.00;57.20;;;;;;4983485;28;20972;-51
2023/05/16 12:22:58;;;;;;;10.53;6.30;;;19.00;56.80;;;;;;4981247;28;20564;-54
2023/05/16 12:25:27;;;;;;;7.57;6.87;;;18.90;56.80;;;;;;4980465;28;20187;-51
2023/05/16 12:27:54;;;;;;;7.17;6.53;;;18.80;57.00;;;;;;4985084;28;20456;-51
2023/05/16 12:30:26;;;;;;;9.10;6.73;;;19.00;57.00;;;;;;4987629;28;20967;-53
2023/05/16 12:32:56;;;;;;;6.37;5.77;;;19.10;56.90;;;;;;4988401;28;20452;-50